Terminal Aerodrome Forecast
Issued by NWS Paducah, KY

Home | Current Version | Previous Version | Text Only | Print | Product List | Glossary On
Versions: 1 2 3 4 5 6 7 8 9 10 11 12 13 14 15 16 17 18 19
000
FTUS43 KPAH 201700
TAFEVV
TAF
KEVV 201720Z 2018/2118 25006KT P6SM VCTS SCT020CB BKN100
     FM201900 25008KT P6SM SCT060 BKN250
     FM202300 00000KT P6SM SCT250
      TEMPO 2110/2112 5SM BR
     FM211400 22007KT P6SM SCT030=

USA.gov is the U.S. government's official web portal to all federal, state and local government web resources and services.